Time;durP1;ratioP1;P1;durP2;ratioP2;P2;SDS_P1;SDS_P2;PMS_P1;PMS_P2;Temp;Humidity;BMP_temperature;BMP_pressure;BME280_temperature;BME280_humidity;BME280_pressure;Samples;Min_cycle;Max_cycle;Signal;HPM_P1;HPM_P2
2022/07/06 00:02:08;;;;;;;4.97;2.47;;;;;;;16.30;62.49;102446.41;4919934;29;20079;-51
2022/07/06 00:04:36;;;;;;;6.25;2.42;;;;;;;16.29;62.13;102448.34;4937578;29;20573;-50
2022/07/06 00:07:04;;;;;;;11.13;2.70;;;;;;;16.29;62.27;102450.28;4936727;29;20072;-48
2022/07/06 00:09:33;;;;;;;7.03;2.50;;;;;;;16.28;62.59;102448.59;4937492;29;20098;-49
2022/07/06 00:12:01;;;;;;;5.97;2.65;;;;;;;16.28;62.82;102454.09;4919777;29;20044;-49
2022/07/06 00:14:28;;;;;;;7.03;2.70;;;;;;;16.23;62.48;102456.81;4920875;29;20084;-49
2022/07/06 00:16:56;;;;;;;4.53;2.45;;;;;;;16.18;62.71;102452.94;4945523;29;20098;-48
2022/07/06 00:19:24;;;;;;;8.02;3.25;;;;;;;16.15;63.26;102450.72;4920837;29;20044;-48
2022/07/06 00:21:52;;;;;;;6.63;2.70;;;;;;;16.14;63.31;102453.75;4937666;29;20086;-48
2022/07/06 00:24:20;;;;;;;8.48;2.30;;;;;;;16.11;63.47;102455.09;4936359;29;20052;-50
2022/07/06 00:26:49;;;;;;;5.97;2.70;;;;;;;16.10;63.35;102458.94;4943286;29;20491;-48
2022/07/06 00:29:16;;;;;;;6.75;2.60;;;;;;;16.09;63.60;102456.44;4936351;29;20135;-49
2022/07/06 00:31:45;;;;;;;5.90;2.80;;;;;;;16.06;63.90;102457.81;4925516;29;20035;-48
2022/07/06 00:34:12;;;;;;;8.57;2.85;;;;;;;16.05;63.88;102460.84;4942845;29;20054;-49
2022/07/06 00:36:40;;;;;;;8.30;2.83;;;;;;;15.98;64.35;102452.81;4920120;29;20051;-50
2022/07/06 00:39:08;;;;;;;5.70;2.70;;;;;;;15.94;64.26;102449.75;4936716;29;20039;-48
2022/07/06 00:41:36;;;;;;;6.55;2.90;;;;;;;15.94;64.43;102454.44;4920319;29;20059;-50
2022/07/06 00:44:08;;;;;;;5.10;2.75;;;;;;;15.92;64.86;102446.47;4904195;29;20060;-49
2022/07/06 00:46:36;;;;;;;6.18;2.40;;;;;;;15.94;64.75;102446.19;4935047;29;20102;-51
2022/07/06 00:49:04;;;;;;;6.03;2.53;;;;;;;15.92;64.65;102442.88;4918945;29;20046;-48
2022/07/06 00:51:36;;;;;;;5.05;2.40;;;;;;;15.93;64.90;102441.78;4936353;29;20447;-50
2022/07/06 00:54:05;;;;;;;3.42;2.28;;;;;;;15.92;65.25;102442.88;4937816;29;20498;-48
2022/07/06 00:56:33;;;;;;;8.32;2.60;;;;;;;15.91;65.42;102442.06;4943673;29;20067;-49
2022/07/06 00:59:01;;;;;;;3.75;2.15;;;;;;;15.91;65.33;102444.78;4903442;29;20103;-49
2022/07/06 01:01:29;;;;;;;5.40;2.40;;;;;;;15.90;65.19;102442.34;4932671;29;20503;-50
2022/07/06 01:03:57;;;;;;;5.13;2.72;;;;;;;15.88;65.44;102445.34;4936597;29;20403;-49
2022/07/06 01:06:25;;;;;;;6.95;2.60;;;;;;;15.83;65.45;102431.56;4919792;29;20055;-48
2022/07/06 01:08:53;;;;;;;4.72;2.55;;;;;;;15.83;65.45;102444.47;4920043;29;20091;-51
2022/07/06 01:11:22;;;;;;;7.28;3.00;;;;;;;15.81;65.93;102441.97;4919610;29;20130;-53
2022/07/06 01:13:50;;;;;;;4.13;2.42;;;;;;;15.79;65.85;102446.09;4920270;29;20055;-47
2022/07/06 01:16:18;;;;;;;5.05;2.65;;;;;;;15.77;65.91;102436.16;4922334;29;20047;-47
2022/07/06 01:18:47;;;;;;;6.35;2.50;;;;;;;15.69;66.56;102436.63;4919904;29;20418;-48
2022/07/06 01:21:15;;;;;;;6.38;2.60;;;;;;;15.67;66.38;102433.31;4918257;29;20132;-53
2022/07/06 01:23:46;;;;;;;8.57;2.92;;;;;;;15.64;66.90;102435.78;4919952;29;20075;-50
2022/07/06 01:26:16;;;;;;;7.07;2.40;;;;;;;15.57;67.42;102436.00;4936929;29;20047;-49
2022/07/06 01:28:43;;;;;;;4.72;2.40;;;;;;;15.60;67.15;102435.47;4903526;29;20058;-49
2022/07/06 01:31:29;;;;;;;9.73;2.72;;;;;;;15.60;66.87;102446.44;4935220;29;20067;-45
2022/07/06 01:33:59;;;;;;;6.20;2.50;;;;;;;15.61;67.16;102444.53;4936218;29;20053;-50
2022/07/06 01:36:27;;;;;;;6.20;2.53;;;;;;;15.60;67.20;102445.63;4939828;29;20071;-51
2022/07/06 01:38:59;;;;;;;8.70;2.75;;;;;;;15.58;67.40;102445.88;4918904;29;20402;-49
2022/07/06 01:41:27;;;;;;;4.18;2.13;;;;;;;15.53;67.53;102443.09;4934990;29;20506;-50
2022/07/06 01:43:54;;;;;;;5.85;2.50;;;;;;;15.47;67.99;102439.47;4940172;29;20049;-49
2022/07/06 01:46:22;;;;;;;3.33;2.10;;;;;;;15.49;68.00;102444.69;4954754;28;20457;-49
2022/07/06 01:48:50;;;;;;;5.32;2.55;;;;;;;15.51;67.89;102434.28;4934240;29;20083;-48
2022/07/06 01:51:18;;;;;;;4.40;2.35;;;;;;;15.50;67.53;102433.47;4918307;29;20415;-48
2022/07/06 01:53:47;;;;;;;7.15;2.58;;;;;;;15.47;67.94;102438.66;4947771;28;20039;-50
2022/07/06 01:56:19;;;;;;;6.70;2.28;;;;;;;15.44;68.08;102442.75;4911206;29;20130;-51
2022/07/06 01:58:49;;;;;;;4.85;2.47;;;;;;;15.43;68.17;102443.00;4918866;29;20040;-54
2022/07/06 02:01:19;;;;;;;6.85;2.33;;;;;;;15.45;68.12;102446.34;4934344;29;20084;-53
2022/07/06 02:03:47;;;;;;;4.07;2.20;;;;;;;15.44;68.01;102452.91;4904105;29;20534;-52
2022/07/06 02:06:15;;;;;;;6.68;2.47;;;;;;;15.41;67.94;102445.19;4918808;29;20110;-49
2022/07/06 02:08:46;;;;;;;4.13;2.10;;;;;;;15.38;68.09;102446.53;4919066;29;20039;-50
2022/07/06 02:11:14;;;;;;;4.35;2.17;;;;;;;15.38;67.96;102443.78;4918960;29;20439;-53
2022/07/06 02:13:43;;;;;;;5.10;2.60;;;;;;;15.38;67.77;102445.72;4918308;29;20092;-51
2022/07/06 02:16:12;;;;;;;5.03;2.40;;;;;;;15.34;68.19;102435.25;4922834;29;20524;-54
2022/07/06 02:18:40;;;;;;;6.25;2.70;;;;;;;15.33;67.73;102439.06;4916228;29;20422;-53
2022/07/06 02:21:08;;;;;;;7.85;2.47;;;;;;;15.28;67.89;102441.78;4926737;29;20050;-54
2022/07/06 02:23:35;;;;;;;4.40;2.40;;;;;;;15.27;68.21;102450.28;4938603;29;20051;-50
2022/07/06 02:26:04;;;;;;;3.38;2.20;;;;;;;15.28;68.15;102446.44;4921623;29;20399;-53
2022/07/06 02:28:32;;;;;;;6.38;2.38;;;;;;;15.26;68.09;102443.97;4955894;28;20047;-53
2022/07/06 02:31:00;;;;;;;4.82;2.17;;;;;;;15.25;68.02;102439.56;4953696;28;20040;-47
2022/07/06 02:33:29;;;;;;;5.60;2.03;;;;;;;15.26;68.11;102445.88;4921544;29;20043;-54
2022/07/06 02:35:57;;;;;;;4.35;2.40;;;;;;;15.23;67.79;102440.91;4922634;29;20044;-52
2022/07/06 02:38:25;;;;;;;5.70;2.60;;;;;;;15.17;67.92;102433.69;4921176;29;20051;-51
2022/07/06 02:40:54;;;;;;;6.28;2.60;;;;;;;15.13;68.08;102433.41;4922582;29;20074;-49
2022/07/06 02:43:21;;;;;;;11.15;2.78;;;;;;;15.09;68.57;102440.50;4921741;29;20046;-52
2022/07/06 02:45:50;;;;;;;4.32;2.20;;;;;;;15.06;68.61;102432.78;4921288;29;20411;-50
2022/07/06 02:48:21;;;;;;;8.13;2.63;;;;;;;15.06;68.58;102436.34;4906758;29;20040;-50
2022/07/06 02:50:51;;;;;;;5.60;2.20;;;;;;;15.08;68.42;102436.94;4930530;29;20058;-53
2022/07/06 02:53:19;;;;;;;4.28;2.17;;;;;;;15.09;68.54;102435.00;4921991;29;20067;-53
2022/07/06 02:55:50;;;;;;;4.38;2.33;;;;;;;15.11;68.40;102438.31;4921180;29;20169;-52
2022/07/06 02:58:17;;;;;;;5.75;2.30;;;;;;;15.07;68.53;102435.25;4920371;29;20046;-51
2022/07/06 03:00:46;;;;;;;5.57;2.40;;;;;;;15.06;68.28;102444.59;4922419;29;20040;-49
2022/07/06 03:03:14;;;;;;;4.63;2.20;;;;;;;15.04;68.57;102440.44;4921152;29;20095;-49
2022/07/06 03:05:42;;;;;;;8.32;2.75;;;;;;;15.00;68.67;102439.28;4922259;29;20439;-51
2022/07/06 03:08:09;;;;;;;4.82;2.80;;;;;;;14.95;68.97;102439.25;4920581;29;20130;-53
2022/07/06 03:10:37;;;;;;;6.45;2.33;;;;;;;14.93;68.87;102449.66;4920728;29;20102;-51
2022/07/06 03:13:05;;;;;;;5.50;2.45;;;;;;;14.86;69.19;102452.59;4902610;29;20143;-49
2022/07/06 03:15:34;;;;;;;6.70;2.70;;;;;;;14.88;69.33;102459.47;4917687;29;20070;-49
2022/07/06 03:18:02;;;;;;;7.13;2.45;;;;;;;14.93;69.45;102455.13;4923579;29;20394;-51
2022/07/06 03:20:31;;;;;;;5.43;2.47;;;;;;;14.95;69.22;102455.72;4922005;29;20050;-49
2022/07/06 03:22:59;;;;;;;5.75;2.72;;;;;;;14.90;69.42;102468.28;4921111;29;20134;-49
2022/07/06 03:25:26;;;;;;;8.30;2.75;;;;;;;14.87;69.65;102460.56;4924211;29;20035;-49
2022/07/06 03:27:54;;;;;;;6.40;2.92;;;;;;;14.83;69.75;102453.94;4922382;29;20056;-49
2022/07/06 03:30:22;;;;;;;5.28;2.55;;;;;;;14.84;69.91;102454.75;4946046;29;20031;-49
2022/07/06 03:32:54;;;;;;;5.93;2.72;;;;;;;14.84;70.15;102454.75;4921428;29;20436;-50
2022/07/06 03:35:22;;;;;;;5.03;2.72;;;;;;;14.85;69.95;102453.69;4919847;29;20040;-50
2022/07/06 03:37:52;;;;;;;5.40;2.88;;;;;;;14.84;70.18;102455.59;4920393;29;20411;-50
2022/07/06 03:40:23;;;;;;;3.65;2.50;;;;;;;14.86;70.05;102458.06;4936727;29;20040;-50
2022/07/06 03:42:52;;;;;;;5.47;2.75;;;;;;;14.86;70.18;102461.66;4938568;29;20600;-48
2022/07/06 03:45:20;;;;;;;5.45;2.78;;;;;;;14.84;70.37;102455.59;4920402;29;20063;-49
2022/07/06 03:47:48;;;;;;;7.53;3.00;;;;;;;14.84;70.46;102463.84;4920199;29;20042;-50
2022/07/06 03:50:15;;;;;;;6.38;3.15;;;;;;;14.84;70.46;102458.34;4921309;29;20036;-50
2022/07/06 03:52:43;;;;;;;5.60;2.78;;;;;;;14.86;70.36;102455.31;4920279;29;20058;-53
2022/07/06 03:55:12;;;;;;;7.07;3.03;;;;;;;14.88;70.45;102453.97;4929445;29;20050;-50
2022/07/06 03:57:44;;;;;;;6.30;2.72;;;;;;;14.93;70.34;102455.97;4955254;28;20523;-50
2022/07/06 04:00:16;;;;;;;5.95;2.95;;;;;;;14.93;70.19;102458.69;4935343;29;20047;-49
2022/07/06 04:02:50;;;;;;;6.97;2.92;;;;;;;14.90;70.22;102454.56;4928743;29;20074;-50
2022/07/06 04:05:23;;;;;;;8.68;2.85;;;;;;;14.87;70.39;102457.81;4918972;29;20051;-49
2022/07/06 04:07:53;;;;;;;7.53;3.10;;;;;;;14.83;70.73;102462.16;4901702;29;20048;-50
2022/07/06 04:10:25;;;;;;;9.50;3.45;;;;;;;14.79;71.03;102451.94;4934951;29;20106;-50
2022/07/06 04:12:55;;;;;;;8.02;3.30;;;;;;;14.79;70.82;102461.03;4899513;29;20064;-52
2022/07/06 04:15:22;;;;;;;7.35;3.38;;;;;;;14.81;71.10;102453.34;4946273;28;20071;-51
2022/07/06 04:17:53;;;;;;;6.38;3.00;;;;;;;14.88;70.70;102459.47;4919109;29;20099;-50
2022/07/06 04:20:26;;;;;;;7.65;3.47;;;;;;;14.91;70.61;102453.50;4920647;29;20036;-51
2022/07/06 04:22:55;;;;;;;6.05;3.13;;;;;;;14.90;70.81;102457.31;4924236;29;20126;-51
2022/07/06 04:25:25;;;;;;;5.75;3.08;;;;;;;14.93;70.43;102452.38;4919540;29;20183;-52
2022/07/06 04:27:55;;;;;;;5.28;3.28;;;;;;;14.89;70.93;102450.16;4919137;29;20518;-50
2022/07/06 04:30:22;;;;;;;6.82;3.35;;;;;;;14.87;70.96;102452.34;4919354;29;20159;-49
2022/07/06 04:32:50;;;;;;;8.60;3.50;;;;;;;14.82;71.06;102452.28;4920658;29;20413;-49
2022/07/06 04:35:18;;;;;;;6.82;3.47;;;;;;;14.81;71.12;102445.13;4919262;29;20507;-54
2022/07/06 04:37:48;;;;;;;7.80;3.50;;;;;;;14.79;71.28;102450.06;4902995;29;20040;-51
2022/07/06 04:40:18;;;;;;;7.63;3.50;;;;;;;14.78;71.34;102442.91;4959284;28;20049;-50
2022/07/06 04:42:49;;;;;;;9.20;3.67;;;;;;;14.78;71.72;102448.38;4927769;29;20039;-50
2022/07/06 04:45:17;;;;;;;7.50;3.58;;;;;;;14.78;71.54;102448.38;4899877;29;20571;-52
2022/07/06 04:47:45;;;;;;;6.22;3.55;;;;;;;14.78;71.78;102448.38;4918673;29;20407;-50
2022/07/06 04:50:14;;;;;;;7.20;3.58;;;;;;;14.81;71.81;102441.56;4935179;29;20046;-50
2022/07/06 04:52:43;;;;;;;8.05;3.67;;;;;;;14.81;71.96;102436.06;4920623;29;20467;-49
2022/07/06 04:55:12;;;;;;;9.10;4.13;;;;;;;14.84;71.74;102446.50;4902811;29;20056;-48
2022/07/06 04:57:40;;;;;;;7.90;3.65;;;;;;;14.82;71.87;102444.03;4951040;28;20402;-48
2022/07/06 05:00:09;;;;;;;6.80;3.20;;;;;;;14.82;71.81;102449.53;4920935;29;20058;-49
2022/07/06 05:02:36;;;;;;;6.22;3.28;;;;;;;14.90;71.70;102453.72;4918864;29;20067;-49
2022/07/06 05:05:05;;;;;;;6.50;3.78;;;;;;;14.90;71.64;102451.81;4919942;29;20495;-48
2022/07/06 05:07:34;;;;;;;7.43;3.50;;;;;;;14.88;71.89;102445.75;4918846;29;20079;-49
2022/07/06 05:10:02;;;;;;;9.48;3.90;;;;;;;14.88;72.07;102448.50;4920171;29;20044;-50
2022/07/06 05:12:32;;;;;;;7.68;3.63;;;;;;;14.89;72.03;102452.91;4918116;29;20106;-49
2022/07/06 05:15:00;;;;;;;9.35;4.20;;;;;;;14.87;72.22;102463.31;4935453;29;20062;-49
2022/07/06 05:17:28;;;;;;;7.72;3.67;;;;;;;14.88;72.31;102470.44;4927808;29;20103;-50
2022/07/06 05:19:59;;;;;;;6.25;3.80;;;;;;;14.89;72.59;102461.16;4919051;29;20063;-49
2022/07/06 05:22:28;;;;;;;4.90;3.08;;;;;;;14.90;72.64;102467.47;4918268;29;20043;-51
2022/07/06 05:24:56;;;;;;;9.35;3.88;;;;;;;14.91;72.69;102469.97;4918693;29;20043;-49
2022/07/06 05:27:24;;;;;;;5.85;3.60;;;;;;;14.95;72.64;102474.94;4919686;29;20036;-50
2022/07/06 05:29:52;;;;;;;7.07;3.55;;;;;;;14.96;73.21;102479.31;4919740;29;20079;-49
2022/07/06 05:32:20;;;;;;;11.40;3.70;;;;;;;15.04;72.96;102478.88;4903327;29;20403;-49
2022/07/06 05:34:51;;;;;;;5.97;3.33;;;;;;;15.07;73.25;102472.88;4918576;29;20164;-47
2022/07/06 05:37:20;;;;;;;9.45;3.47;;;;;;;15.09;73.14;102463.28;4949645;28;20056;-49
2022/07/06 05:39:50;;;;;;;7.85;3.47;;;;;;;15.11;73.13;102463.03;4905232;29;20050;-46
2022/07/06 05:42:18;;;;;;;8.65;3.60;;;;;;;15.11;73.50;102465.78;4925946;29;20490;-48
2022/07/06 05:44:47;;;;;;;6.70;3.58;;;;;;;15.10;73.81;102478.69;4902493;29;20406;-46
2022/07/06 05:50:13;;;;;;;6.28;3.35;;;;;;;15.07;74.26;102476.44;4923684;29;20056;-48
2022/07/06 05:52:59;;;;;;;6.30;3.40;;;;;;;15.11;74.03;102474.00;4926000;29;20075;-48
2022/07/06 05:55:33;;;;;;;6.68;3.40;;;;;;;15.12;74.23;102472.91;4909114;29;20062;-51
2022/07/06 05:58:03;;;;;;;8.65;3.33;;;;;;;15.12;73.93;102483.91;4921744;29;20059;-53
2022/07/06 06:00:33;;;;;;;7.15;3.30;;;;;;;15.09;74.29;102487.16;4239879;29;10000742;-52
2022/07/06 06:03:07;;;;;;;4.93;3.00;;;;;;;15.10;74.90;102486.06;4921126;29;20522;-49
2022/07/06 06:05:35;;;;;;;6.05;2.90;;;;;;;15.20;74.63;102486.19;4935832;29;20078;-53
2022/07/06 06:08:06;;;;;;;7.85;3.10;;;;;;;15.32;73.66;102486.88;4918261;29;20054;-52
2022/07/06 06:10:34;;;;;;;5.40;2.88;;;;;;;15.34;73.82;102481.09;4935914;29;20434;-46
2022/07/06 06:13:06;;;;;;;6.35;3.30;;;;;;;15.39;74.08;102485.81;4929018;29;20091;-43
2022/07/06 06:15:35;;;;;;;6.78;3.15;;;;;;;15.41;74.31;102478.16;4922576;29;20099;-43
2022/07/06 06:18:04;;;;;;;8.70;3.38;;;;;;;15.38;75.13;102484.16;4920028;29;20119;-46
2022/07/06 06:20:32;;;;;;;8.20;3.00;;;;;;;15.32;75.76;102486.00;4935191;29;20039;-47
2022/07/06 06:23:00;;;;;;;5.18;3.00;;;;;;;15.29;76.14;102481.88;4936548;29;20495;-47
2022/07/06 06:25:38;;;;;;;6.10;3.00;;;;;;;15.34;75.40;102486.59;4934702;29;20147;-47
2022/07/06 06:28:11;;;;;;;5.65;2.80;;;;;;;15.40;74.83;102482.00;4942529;29;20243;-48
2022/07/06 06:30:39;;;;;;;6.07;2.92;;;;;;;15.46;74.78;102484.50;4935378;29;20054;-45
2022/07/06 06:33:08;;;;;;;8.50;3.03;;;;;;;15.47;74.61;102485.38;4903585;29;20077;-48
2022/07/06 06:35:36;;;;;;;5.80;2.90;;;;;;;15.49;74.62;102480.41;4901633;29;20419;-48
2022/07/06 06:38:04;;;;;;;8.98;2.80;;;;;;;15.50;74.22;102482.09;4918694;29;20062;-48
2022/07/06 06:40:32;;;;;;;6.47;3.08;;;;;;;15.48;73.86;102487.00;4935012;29;20138;-48
2022/07/06 06:42:59;;;;;;;8.82;2.78;;;;;;;15.43;74.21;102482.28;4949618;29;20047;-50
2022/07/06 06:45:29;;;;;;;4.05;2.50;;;;;;;15.42;73.97;102479.81;4943742;29;20055;-48
2022/07/06 06:47:57;;;;;;;5.40;2.70;;;;;;;15.40;74.27;102487.50;4927310;29;20079;-48
2022/07/06 06:50:25;;;;;;;4.60;2.63;;;;;;;15.43;74.25;102482.28;4917151;29;20399;-47
2022/07/06 06:52:53;;;;;;;4.45;2.08;;;;;;;15.57;74.28;102482.69;4926770;29;20058;-48
2022/07/06 06:55:21;;;;;;;8.95;2.88;;;;;;;15.77;73.49;102491.13;4934706;29;20048;-50
2022/07/06 06:57:49;;;;;;;7.60;2.92;;;;;;;15.98;72.53;102483.06;4938061;29;20059;-49
2022/07/06 07:00:16;;;;;;;6.30;2.50;;;;;;;16.11;72.12;102488.09;4936742;29;20115;-48
2022/07/06 07:02:45;;;;;;;4.68;2.17;;;;;;;16.22;71.42;102494.50;4947654;29;20066;-45
2022/07/06 07:05:13;;;;;;;5.97;2.33;;;;;;;16.31;70.77;102492.91;4920553;29;20048;-46
2022/07/06 07:07:40;;;;;;;5.43;2.20;;;;;;;16.37;70.86;102496.53;4937958;29;20052;-45
2022/07/06 07:10:08;;;;;;;4.15;2.05;;;;;;;16.44;69.98;102499.03;4948494;29;20490;-46
2022/07/06 07:12:41;;;;;;;4.63;2.05;;;;;;;16.43;69.42;102500.97;4942506;29;20035;-45
2022/07/06 07:15:09;;;;;;;3.72;2.22;;;;;;;16.41;69.80;102503.16;4937591;29;20051;-51
2022/07/06 07:17:37;;;;;;;4.75;2.30;;;;;;;16.44;69.47;102516.38;4937646;29;20051;-48
2022/07/06 07:20:05;;;;;;;5.75;2.00;;;;;;;16.48;68.69;102505.66;4937813;29;20078;-47
2022/07/06 07:22:33;;;;;;;5.95;1.90;;;;;;;16.45;67.82;102504.28;4922799;29;20522;-48
2022/07/06 07:25:01;;;;;;;5.70;2.00;;;;;;;16.38;68.09;102498.19;4945358;29;20050;-52
2022/07/06 07:27:28;;;;;;;5.78;2.20;;;;;;;16.29;67.48;102499.78;4937215;29;20076;-49
2022/07/06 07:29:56;;;;;;;4.30;2.00;;;;;;;16.24;68.29;102508.00;4937773;29;20161;-51
2022/07/06 07:32:23;;;;;;;4.72;1.85;;;;;;;16.18;67.72;102507.94;4921555;29;20407;-49
2022/07/06 07:34:51;;;;;;;3.80;2.00;;;;;;;16.15;67.66;102504.91;4921422;29;20047;-45
2022/07/06 07:37:19;;;;;;;6.32;2.20;;;;;;;16.14;67.85;102501.34;4937210;29;20418;-48
2022/07/06 07:39:46;;;;;;;6.22;1.60;;;;;;;16.14;67.79;102500.50;4937180;29;20044;-46
2022/07/06 07:42:14;;;;;;;17.35;4.55;;;;;;;16.25;67.94;102515.16;4938306;29;20044;-48
2022/07/06 07:44:45;;;;;;;10.95;3.25;;;;;;;16.37;67.74;102513.03;4936998;29;20039;-47
2022/07/06 07:47:12;;;;;;;20.90;5.75;;;;;;;16.45;66.86;102507.03;4937804;29;20505;-47
2022/07/06 07:49:40;;;;;;;16.02;4.40;;;;;;;16.52;66.36;102510.34;4936642;29;20042;-46
2022/07/06 07:52:08;;;;;;;21.65;5.40;;;;;;;16.59;66.56;102505.44;4948644;29;20045;-48
2022/07/06 07:54:35;;;;;;;19.23;4.90;;;;;;;16.69;65.65;102509.34;4945019;29;20400;-48
2022/07/06 07:57:03;;;;;;;11.77;3.72;;;;;;;16.76;64.94;102497.00;4936912;29;20047;-47
2022/07/06 07:59:31;;;;;;;15.30;3.95;;;;;;;16.82;64.26;102498.69;4940616;29;20498;-47
2022/07/06 08:01:59;;;;;;;12.68;3.75;;;;;;;16.82;64.06;102500.63;4932841;29;20376;-48
2022/07/06 08:04:27;;;;;;;10.55;3.17;;;;;;;16.83;64.15;102499.53;4938004;29;20562;-48
2022/07/06 08:06:54;;;;;;;11.82;3.53;;;;;;;16.88;64.24;102496.78;4936511;29;20522;-47
2022/07/06 08:09:28;;;;;;;7.95;2.85;;;;;;;16.92;62.44;102503.41;4937429;29;20067;-50
2022/07/06 08:11:56;;;;;;;8.38;2.25;;;;;;;16.89;62.51;102487.44;4936559;29;20094;-50
2022/07/06 08:14:24;;;;;;;7.22;2.70;;;;;;;16.97;63.13;102500.69;4936670;29;20482;-52
2022/07/06 08:16:52;;;;;;;9.55;2.70;;;;;;;17.03;62.27;102498.78;4937621;29;20048;-48
2022/07/06 08:19:19;;;;;;;8.57;2.88;;;;;;;17.06;62.12;102486.41;4935598;29;20123;-48
2022/07/06 08:21:47;;;;;;;9.98;3.50;;;;;;;17.13;62.63;102492.47;4937100;29;20408;-47
2022/07/06 08:24:15;;;;;;;6.25;2.05;;;;;;;17.16;61.92;102480.91;4936869;29;20118;-50
2022/07/06 08:26:42;;;;;;;11.52;2.97;;;;;;;17.15;62.02;102491.09;4936398;29;20078;-54
2022/07/06 08:29:10;;;;;;;6.53;2.03;;;;;;;17.16;61.60;102491.94;4935907;29;20519;-50
2022/07/06 08:31:38;;;;;;;6.22;1.95;;;;;;;17.20;61.09;102482.03;4936582;29;20051;-45
2022/07/06 08:34:24;;;;;;;5.15;1.48;;;;;;;17.31;61.76;102485.63;4938136;29;20043;-48
2022/07/06 08:37:00;;;;;;;8.13;1.92;;;;;;;17.40;60.92;102479.28;4949666;28;20075;-45
2022/07/06 08:39:28;;;;;;;4.28;1.73;;;;;;;17.44;59.20;102474.09;4938890;29;20046;-46
2022/07/06 08:41:57;;;;;;;4.05;1.75;;;;;;;17.45;56.55;102473.78;4936175;29;20055;-47
2022/07/06 08:44:26;;;;;;;6.07;1.83;;;;;;;17.46;56.68;102480.97;4936328;29;20107;-49
2022/07/06 08:46:55;;;;;;;4.20;1.73;;;;;;;17.48;57.05;102468.84;4937125;29;20048;-50
2022/07/06 08:49:23;;;;;;;5.65;1.63;;;;;;;17.53;57.01;102477.09;4918391;29;20043;-51
2022/07/06 08:51:53;;;;;;;5.82;1.17;;;;;;;17.54;55.98;102487.03;4936115;29;20165;-47
2022/07/06 08:54:22;;;;;;;2.13;0.93;;;;;;;17.54;55.42;102465.00;4937797;29;20051;-49
2022/07/06 08:56:50;;;;;;;1.98;1.00;;;;;;;17.54;56.00;102468.56;4919276;29;20123;-48
2022/07/06 08:59:18;;;;;;;4.47;1.60;;;;;;;17.56;56.60;102463.63;4937066;29;20054;-47
2022/07/06 09:01:49;;;;;;;5.38;1.55;;;;;;;17.65;57.64;102461.13;4919655;29;20102;-48
2022/07/06 09:04:17;;;;;;;2.55;1.25;;;;;;;17.73;57.37;102459.75;4936273;29;20095;-49
2022/07/06 09:06:48;;;;;;;3.92;1.35;;;;;;;17.78;57.13;102470.78;4923491;29;20043;-49
2022/07/06 09:09:24;;;;;;;4.53;1.35;;;;;;;17.80;55.49;102469.44;4919252;29;20050;-47
2022/07/06 09:11:52;;;;;;;2.83;0.82;;;;;;;17.81;54.48;102459.22;4920836;29;20462;-48
2022/07/06 09:14:20;;;;;;;4.10;1.45;;;;;;;17.83;54.88;102463.34;4940420;29;20485;-50
2022/07/06 09:16:52;;;;;;;3.92;1.52;;;;;;;17.86;54.64;102467.50;4935719;29;20052;-49
2022/07/06 09:19:20;;;;;;;4.32;1.38;;;;;;;17.90;54.74;102468.59;4949943;29;20067;-48
2022/07/06 09:21:48;;;;;;;5.57;1.98;;;;;;;17.93;54.30;102472.72;4935682;29;20051;-48
2022/07/06 09:24:16;;;;;;;5.05;1.60;;;;;;;17.92;53.49;102477.44;4940447;29;20043;-46
2022/07/06 09:26:47;;;;;;;4.47;1.10;;;;;;;17.92;53.81;102469.16;4942913;29;20052;-44
2022/07/06 09:29:14;;;;;;;2.95;1.33;;;;;;;17.95;53.98;102467.75;4942203;29;20055;-45
2022/07/06 09:31:42;;;;;;;5.78;1.42;;;;;;;17.93;54.47;102461.69;4946341;29;20439;-45
2022/07/06 09:34:10;;;;;;;4.80;1.42;;;;;;;17.91;52.45;102475.75;4933959;29;20063;-43
2022/07/06 09:36:47;;;;;;;4.93;1.23;;;;;;;17.89;50.23;102477.94;4924174;29;20063;-45
2022/07/06 09:39:15;;;;;;;2.30;0.80;;;;;;;17.91;50.64;102478.50;4924286;29;20048;-43
2022/07/06 09:41:46;;;;;;;2.40;0.70;;;;;;;17.96;49.68;102470.22;4942969;29;20166;-44
2022/07/06 09:44:18;;;;;;;2.22;0.85;;;;;;;18.02;50.75;102471.88;4925049;29;20383;-45
2022/07/06 09:46:47;;;;;;;4.07;1.30;;;;;;;18.09;51.17;102483.47;4941560;29;20035;-45
2022/07/06 09:49:23;;;;;;;2.85;1.23;;;;;;;18.10;51.51;102476.81;4925390;29;20067;-45
2022/07/06 09:51:53;;;;;;;1.50;0.80;;;;;;;18.08;49.81;102484.53;4931567;29;20051;-48
2022/07/06 09:54:20;;;;;;;2.13;0.98;;;;;;;18.12;50.28;102482.06;4941779;29;20045;-45
2022/07/06 09:56:53;;;;;;;2.10;1.20;;;;;;;18.17;51.55;102479.31;4941700;29;20479;-45
2022/07/06 09:59:23;;;;;;;2.40;1.17;;;;;;;18.20;50.59;102484.25;4925589;29;20039;-44
2022/07/06 10:01:58;;;;;;;4.60;1.55;;;;;;;18.22;51.47;102481.22;4943016;29;20048;-47
2022/07/06 10:04:27;;;;;;;1.38;1.00;;;;;;;18.23;51.34;102488.38;4906242;29;20043;-48
2022/07/06 10:06:56;;;;;;;1.73;1.00;;;;;;;18.23;51.79;102483.72;4915520;29;20126;-47
2022/07/06 10:09:25;;;;;;;5.68;1.42;;;;;;;18.19;49.91;102484.56;4941827;29;20505;-46
2022/07/06 10:11:55;;;;;;;2.97;1.10;;;;;;;18.15;49.80;102486.22;4914276;29;20043;-46
2022/07/06 10:14:28;;;;;;;4.32;1.75;;;;;;;18.15;50.48;102487.03;4946450;29;20051;-44
2022/07/06 10:16:58;;;;;;;2.58;1.05;;;;;;;18.17;50.46;102484.81;4923875;29;20047;-46
2022/07/06 10:19:27;;;;;;;2.50;1.13;;;;;;;18.17;51.20;102490.34;4941710;29;20040;-44
2022/07/06 10:21:58;;;;;;;2.60;0.88;;;;;;;18.18;49.24;102486.47;4947355;29;20054;-45
2022/07/06 10:24:28;;;;;;;3.78;1.08;;;;;;;18.21;50.24;102494.19;4949172;29;20073;-45
2022/07/06 10:26:56;;;;;;;1.65;0.80;;;;;;;18.26;50.14;102494.19;4925063;29;20525;-43
2022/07/06 10:29:25;;;;;;;2.13;1.00;;;;;;;18.29;50.94;102484.53;4942475;29;20051;-44
2022/07/06 10:31:53;;;;;;;5.97;1.70;;;;;;;18.34;50.56;102486.44;4942554;29;20099;-45
2022/07/06 10:34:21;;;;;;;3.88;1.20;;;;;;;18.34;50.64;102484.50;4256926;28;10000327;-48
2022/07/06 10:36:53;;;;;;;3.30;0.95;;;;;;;18.35;50.23;102483.41;4906931;29;20044;-45
2022/07/06 10:43:02;;;;;;;4.13;1.13;;;;;;;18.40;51.08;102482.56;4930929;29;20127;-46
2022/07/06 10:45:30;;;;;;;4.10;1.40;;;;;;;18.42;49.94;102475.63;4870868;29;20049;-41
2022/07/06 10:48:13;;;;;;;1.65;0.85;;;;;;;18.43;49.92;102484.78;4864795;29;20448;-48
2022/07/06 10:50:50;;;;;;;3.08;0.95;;;;;;;18.45;48.71;102468.75;4563125;29;10000618;-42
2022/07/06 10:53:28;;;;;;;1.67;1.00;;;;;;;18.48;49.65;102477.28;4934817;29;20047;-45
2022/07/06 10:55:57;;;;;;;3.00;1.10;;;;;;;18.51;48.67;102484.19;4950656;28;20488;-44
2022/07/06 10:58:50;;;;;;;2.92;1.08;;;;;;;18.54;49.14;102478.09;4934703;29;20052;-45
2022/07/06 11:01:20;;;;;;;2.63;1.05;;;;;;;18.52;48.59;102469.28;4931883;29;20064;-45
2022/07/06 11:03:50;;;;;;;3.80;1.00;;;;;;;18.51;48.95;102470.38;4934734;29;20420;-46
2022/07/06 11:06:22;;;;;;;1.80;1.05;;;;;;;18.53;48.68;102477.28;4934925;29;20059;-46
2022/07/06 11:08:54;;;;;;;1.85;0.98;;;;;;;18.56;48.88;102472.28;4911542;29;20039;-46
2022/07/06 11:11:27;;;;;;;3.22;1.30;;;;;;;18.59;48.52;102480.00;4938446;29;20054;-46
2022/07/06 11:14:04;;;;;;;2.00;0.90;;;;;;;18.62;48.38;102474.75;4916206;29;20056;-46
2022/07/06 11:16:38;;;;;;;3.92;1.02;;;;;;;18.64;48.71;102479.97;4934548;29;20472;-46
2022/07/06 11:19:11;;;;;;;2.10;0.85;;;;;;;18.66;47.99;102478.59;4934644;29;20048;-47
2022/07/06 11:21:40;;;;;;;2.58;0.98;;;;;;;18.66;47.66;102470.31;4937866;29;20067;-48
2022/07/06 11:24:13;;;;;;;4.57;0.95;;;;;;;18.64;48.21;102472.56;4941190;29;20044;-47
2022/07/06 11:26:43;;;;;;;1.88;0.88;;;;;;;18.68;47.84;102468.09;4937087;29;20566;-46
2022/07/06 11:29:12;;;;;;;2.60;1.17;;;;;;;18.73;47.92;102470.81;4933328;29;20039;-46
2022/07/06 11:31:42;;;;;;;5.25;1.30;;;;;;;18.76;47.56;102471.38;4920659;29;20055;-47
2022/07/06 11:34:12;;;;;;;1.42;0.90;;;;;;;18.77;47.58;102456.50;4917518;29;20062;-43
2022/07/06 11:36:40;;;;;;;2.22;1.00;;;;;;;18.81;47.87;102454.81;4917450;29;20391;-45
2022/07/06 11:39:13;;;;;;;1.90;0.95;;;;;;;18.84;48.19;102459.78;4918282;29;20422;-45
2022/07/06 11:41:41;;;;;;;2.75;0.85;;;;;;;18.86;47.11;102452.06;4919921;29;20054;-47